Time;durP1;ratioP1;P1;durP2;ratioP2;P2;SDS_P1;SDS_P2;PMS_P1;PMS_P2;Temp;Humidity;BMP_temperature;BMP_pressure;BME280_temperature;BME280_humidity;BME280_pressure;Samples;Min_cycle;Max_cycle;Signal;HPM_P1;HPM_P2
2022/07/13 00:01:15;;;;;;;7.65;4.53;;;25.20;82.50;;;;;;5095056;28;20458;-81
2022/07/13 00:03:41;;;;;;;3.80;3.50;;;24.80;85.20;;;;;;5095027;28;20046;-81
2022/07/13 00:06:07;;;;;;;4.10;3.70;;;24.70;85.20;;;;;;5094969;28;20030;-80
2022/07/13 00:08:33;;;;;;;3.65;3.35;;;24.70;84.90;;;;;;5095265;28;20024;-81
2022/07/13 00:10:59;;;;;;;6.60;4.10;;;24.80;84.60;;;;;;5095041;28;20378;-81
2022/07/13 00:13:25;;;;;;;4.20;3.20;;;24.80;85.40;;;;;;5095106;28;20024;-81
2022/07/13 00:15:50;;;;;;;3.72;2.90;;;24.70;86.00;;;;;;5094986;28;20379;-81
2022/07/13 00:18:16;;;;;;;4.72;3.50;;;24.70;86.20;;;;;;5094835;28;20422;-81
2022/07/13 00:20:43;;;;;;;4.15;3.75;;;24.80;86.10;;;;;;5095085;28;20016;-81
2022/07/13 00:23:08;;;;;;;4.00;3.70;;;24.80;86.20;;;;;;5095047;28;20035;-81
2022/07/13 00:25:34;;;;;;;3.45;3.15;;;24.90;86.20;;;;;;5094516;28;20383;-81
2022/07/13 00:27:59;;;;;;;4.70;3.40;;;24.90;86.10;;;;;;5094885;28;20059;-81
2022/07/13 00:30:25;;;;;;;3.42;3.13;;;25.00;86.20;;;;;;5094912;28;20463;-81
2022/07/13 00:32:50;;;;;;;3.80;3.42;;;24.90;86.30;;;;;;5094725;28;20024;-81
2022/07/13 00:35:16;;;;;;;4.13;3.80;;;25.00;86.60;;;;;;5094530;28;20039;-81
2022/07/13 00:37:43;;;;;;;4.47;3.70;;;25.00;86.70;;;;;;5094924;28;20373;-81
2022/07/13 00:40:09;;;;;;;5.63;3.88;;;25.00;86.70;;;;;;5094686;28;20047;-81
2022/07/13 00:42:35;;;;;;;7.20;4.03;;;24.90;86.50;;;;;;5094966;28;20027;-81
2022/07/13 00:45:01;;;;;;;5.32;4.53;;;24.90;86.60;;;;;;5094508;28;20035;-81
2022/07/13 00:47:32;;;;;;;6.55;4.85;;;24.90;87.40;;;;;;5094483;28;20024;-80
2022/07/13 00:50:06;;;;;;;5.65;4.80;;;24.80;88.60;;;;;;5101325;28;20562;-81
2022/07/13 00:52:35;;;;;;;5.93;4.07;;;24.70;88.80;;;;;;5096477;28;20034;-81
2022/07/13 00:55:02;;;;;;;4.82;4.20;;;24.80;88.90;;;;;;5093711;28;20016;-81
2022/07/13 00:57:28;;;;;;;6.57;4.10;;;24.70;89.60;;;;;;5094379;28;20051;-80
2022/07/13 00:59:55;;;;;;;4.60;4.03;;;24.60;89.80;;;;;;5094240;28;20450;-80
2022/07/13 01:02:20;;;;;;;4.15;3.75;;;24.60;89.70;;;;;;5094145;28;20028;-80
2022/07/13 01:04:46;;;;;;;5.20;3.72;;;24.60;89.60;;;;;;5094401;28;20051;-81
2022/07/13 01:07:12;;;;;;;4.20;3.80;;;24.60;89.70;;;;;;5094325;28;20468;-80
2022/07/13 01:09:38;;;;;;;5.25;3.70;;;24.60;89.80;;;;;;5093814;28;20031;-81
2022/07/13 01:12:05;;;;;;;4.80;3.83;;;24.60;89.70;;;;;;5094011;28;20031;-81
2022/07/13 01:14:31;;;;;;;4.55;4.15;;;24.60;89.40;;;;;;5094161;28;20028;-80
2022/07/13 01:16:58;;;;;;;5.57;4.70;;;24.60;89.20;;;;;;5093792;28;20016;-80
2022/07/13 01:19:24;;;;;;;5.88;3.78;;;24.60;89.10;;;;;;5094103;28;20024;-80
2022/07/13 01:21:58;;;;;;;4.10;3.60;;;24.70;89.10;;;;;;5094134;28;20590;-80
2022/07/13 01:24:24;;;;;;;5.95;4.03;;;24.60;88.90;;;;;;5093915;28;20036;-80
2022/07/13 01:26:50;;;;;;;4.25;3.85;;;24.70;88.80;;;;;;5093731;28;20023;-80
2022/07/13 01:29:16;;;;;;;5.63;3.60;;;24.60;88.50;;;;;;5093835;28;20042;-80
2022/07/13 01:31:41;;;;;;;4.32;3.92;;;24.60;88.40;;;;;;5093738;28;20463;-80
2022/07/13 01:34:09;;;;;;;7.57;4.43;;;24.70;88.40;;;;;;5093978;28;20034;-80
2022/07/13 01:36:35;;;;;;;5.47;4.80;;;24.70;88.70;;;;;;5094037;28;20050;-80
2022/07/13 01:39:02;;;;;;;5.90;4.70;;;24.70;89.20;;;;;;5093866;28;20020;-80
2022/07/13 01:41:31;;;;;;;5.78;4.70;;;24.60;89.40;;;;;;5094042;28;20031;-80
2022/07/13 01:43:58;;;;;;;5.90;4.53;;;24.60;89.90;;;;;;5093712;28;20115;-80
2022/07/13 01:46:25;;;;;;;5.07;4.55;;;24.60;90.10;;;;;;5100534;28;20024;-79
2022/07/13 01:48:51;;;;;;;5.60;4.75;;;24.60;90.00;;;;;;5099181;28;20016;-80
2022/07/13 01:51:16;;;;;;;4.65;3.95;;;24.40;90.10;;;;;;5093624;28;20034;-81
2022/07/13 01:53:42;;;;;;;4.88;3.60;;;24.20;89.80;;;;;;5093495;28;20024;-81
2022/07/13 01:56:08;;;;;;;5.70;3.30;;;24.20;89.70;;;;;;5093460;28;20097;-81
2022/07/13 01:58:33;;;;;;;3.50;2.70;;;24.20;88.90;;;;;;5093505;28;20035;-81
2022/07/13 02:00:59;;;;;;;3.40;3.10;;;24.30;88.40;;;;;;5093155;28;20016;-80
2022/07/13 02:03:28;;;;;;;3.25;3.05;;;24.30;88.10;;;;;;5093537;28;20030;-80
2022/07/13 02:05:53;;;;;;;4.15;2.63;;;24.40;88.20;;;;;;5095151;28;20028;-80
2022/07/13 02:08:19;;;;;;;3.08;2.80;;;24.40;88.20;;;;;;5097686;28;20027;-80
2022/07/13 02:10:44;;;;;;;6.78;3.90;;;24.40;88.20;;;;;;5097333;28;20429;-80
2022/07/13 02:13:11;;;;;;;5.30;3.92;;;24.40;89.10;;;;;;5097324;28;20051;-80
2022/07/13 02:15:37;;;;;;;3.53;3.22;;;24.30;89.80;;;;;;5097594;28;20077;-80
2022/07/13 02:18:04;;;;;;;2.95;2.75;;;24.30;89.80;;;;;;5097311;28;20028;-80
2022/07/13 02:20:29;;;;;;;2.72;2.53;;;24.30;89.40;;;;;;5097421;28;20532;-80
2022/07/13 02:22:55;;;;;;;2.88;2.58;;;24.40;89.10;;;;;;5097379;28;20024;-80
2022/07/13 02:25:20;;;;;;;2.58;2.38;;;24.40;89.00;;;;;;5097169;28;20032;-80
2022/07/13 02:27:46;;;;;;;2.10;1.98;;;24.40;87.90;;;;;;5097549;28;20085;-80
2022/07/13 02:30:13;;;;;;;3.25;2.08;;;24.40;87.40;;;;;;5097654;28;20371;-80
2022/07/13 02:32:43;;;;;;;3.80;2.60;;;24.40;87.00;;;;;;5097034;28;20048;-80
2022/07/13 02:35:09;;;;;;;3.08;2.55;;;24.50;86.50;;;;;;5097259;28;20038;-80
2022/07/13 02:37:35;;;;;;;3.00;2.70;;;24.50;86.00;;;;;;5097097;28;20041;-81
2022/07/13 02:40:02;;;;;;;3.20;2.45;;;24.50;85.40;;;;;;5096990;28;20031;-80
2022/07/13 02:42:27;;;;;;;2.42;2.20;;;24.50;85.40;;;;;;5101269;28;20025;-79
2022/07/13 02:44:53;;;;;;;2.60;2.08;;;24.50;85.30;;;;;;5101287;28;20394;-81
2022/07/13 02:47:18;;;;;;;2.30;2.10;;;24.50;85.00;;;;;;5097005;28;20424;-81
2022/07/13 02:49:44;;;;;;;2.53;2.20;;;24.50;84.80;;;;;;5096716;28;20075;-81
2022/07/13 02:52:10;;;;;;;3.78;2.17;;;24.50;84.30;;;;;;5096821;28;20074;-81
2022/07/13 02:54:36;;;;;;;2.35;2.15;;;24.50;83.70;;;;;;5096925;28;20036;-81
2022/07/13 02:57:02;;;;;;;2.65;2.25;;;24.50;83.40;;;;;;5096408;28;20523;-81
2022/07/13 02:59:36;;;;;;;3.15;1.83;;;24.40;82.90;;;;;;5096623;28;20146;-81
2022/07/13 03:02:05;;;;;;;2.28;1.70;;;24.50;82.90;;;;;;5096621;28;20467;-81
2022/07/13 03:04:32;;;;;;;5.28;2.10;;;24.50;82.60;;;;;;5096924;28;20075;-81
2022/07/13 03:06:58;;;;;;;1.90;1.70;;;24.50;81.90;;;;;;5096296;28;20031;-81
2022/07/13 03:09:23;;;;;;;2.75;1.38;;;24.40;81.70;;;;;;5096320;28;20024;-81
2022/07/13 03:11:49;;;;;;;3.72;1.40;;;24.50;81.80;;;;;;5096391;28;20042;-81
2022/07/13 03:14:14;;;;;;;1.63;1.52;;;24.40;81.50;;;;;;5096202;28;20058;-81
2022/07/13 03:16:40;;;;;;;4.13;1.45;;;24.50;81.60;;;;;;5096366;28;20028;-81
2022/07/13 03:19:07;;;;;;;2.13;1.48;;;24.50;81.60;;;;;;5095400;28;20024;-81
2022/07/13 03:21:33;;;;;;;2.30;1.40;;;24.50;81.40;;;;;;5096498;28;20119;-81
2022/07/13 03:23:58;;;;;;;3.28;1.52;;;24.50;81.20;;;;;;5096240;28;20111;-81
2022/07/13 03:26:24;;;;;;;2.25;1.70;;;24.60;80.90;;;;;;5096332;28;20040;-81
2022/07/13 03:28:50;;;;;;;2.88;2.22;;;24.50;80.50;;;;;;5096396;28;20107;-81
2022/07/13 03:31:17;;;;;;;2.05;1.80;;;24.50;79.90;;;;;;5095966;28;20028;-81
2022/07/13 03:33:42;;;;;;;3.13;2.10;;;24.40;80.30;;;;;;5096407;28;20056;-80
2022/07/13 03:36:08;;;;;;;2.45;1.50;;;24.40;80.70;;;;;;5107708;28;20043;-80
2022/07/13 03:38:34;;;;;;;2.00;1.48;;;24.40;80.10;;;;;;5115214;28;20024;-81
2022/07/13 03:41:00;;;;;;;3.67;1.98;;;24.40;80.10;;;;;;5110495;28;20084;-81
2022/07/13 03:43:26;;;;;;;5.90;1.60;;;24.40;79.00;;;;;;5097605;28;20450;-81
2022/07/13 03:45:52;;;;;;;2.30;1.90;;;24.30;79.20;;;;;;5095737;28;20038;-81
2022/07/13 03:48:18;;;;;;;2.22;1.80;;;24.30;79.00;;;;;;5095888;28;20016;-81
2022/07/13 03:50:44;;;;;;;5.47;2.05;;;24.30;79.30;;;;;;5095218;28;20406;-79
2022/07/13 03:53:11;;;;;;;3.33;1.90;;;24.20;78.60;;;;;;5095699;28;20046;-80
2022/07/13 03:55:43;;;;;;;4.55;1.38;;;24.20;78.70;;;;;;5095686;28;20020;-80
2022/07/13 03:58:10;;;;;;;2.38;1.52;;;24.20;79.00;;;;;;5095847;28;20024;-80
2022/07/13 04:00:37;;;;;;;2.13;1.45;;;24.20;78.90;;;;;;5095076;28;20039;-80
2022/07/13 04:03:03;;;;;;;1.40;1.20;;;24.20;78.80;;;;;;5095655;28;20031;-80
2022/07/13 04:05:29;;;;;;;1.35;1.25;;;24.20;78.80;;;;;;5095177;28;20111;-80
2022/07/13 04:07:54;;;;;;;3.67;1.70;;;24.30;78.80;;;;;;5095201;28;20120;-79
2022/07/13 04:10:21;;;;;;;3.03;1.58;;;24.30;78.20;;;;;;5095547;28;20030;-79
2022/07/13 04:12:47;;;;;;;4.20;1.55;;;24.20;78.60;;;;;;5095125;28;20032;-80
2022/07/13 04:15:14;;;;;;;2.03;1.40;;;24.20;78.80;;;;;;5095294;28;20074;-79
2022/07/13 04:17:40;;;;;;;2.13;1.40;;;24.20;79.40;;;;;;5095231;28;20119;-80
2022/07/13 04:20:07;;;;;;;3.00;1.40;;;24.20;78.80;;;;;;5095134;28;20028;-79
2022/07/13 04:22:33;;;;;;;4.43;1.60;;;24.20;78.50;;;;;;5094825;28;20157;-79
2022/07/13 04:24:58;;;;;;;4.72;1.58;;;24.20;78.40;;;;;;5095340;28;20528;-80
2022/07/13 04:27:24;;;;;;;4.47;1.60;;;24.20;78.50;;;;;;5095230;28;20083;-80
2022/07/13 04:29:50;;;;;;;1.40;1.13;;;24.20;78.80;;;;;;5094097;28;20533;-79
2022/07/13 04:32:15;;;;;;;2.30;1.40;;;24.20;79.00;;;;;;5094965;28;20360;-80
2022/07/13 04:34:41;;;;;;;4.72;1.50;;;24.20;79.10;;;;;;5103054;28;20008;-79
2022/07/13 04:37:06;;;;;;;4.35;1.50;;;24.20;79.20;;;;;;5111294;28;20111;-80
2022/07/13 04:39:32;;;;;;;2.50;1.88;;;24.20;79.30;;;;;;5098095;28;20031;-80
2022/07/13 04:41:59;;;;;;;3.33;1.70;;;24.20;79.40;;;;;;5094564;28;20026;-80
2022/07/13 04:44:26;;;;;;;4.40;1.55;;;24.20;79.50;;;;;;5094491;28;20479;-80
2022/07/13 04:46:54;;;;;;;3.17;1.52;;;24.30;79.50;;;;;;5094687;28;20024;-80
2022/07/13 04:49:20;;;;;;;12.15;2.00;;;24.30;79.50;;;;;;5094162;28;20048;-79
2022/07/13 04:51:55;;;;;;;7.68;1.75;;;24.30;79.50;;;;;;5091110;27;20405;-80
2022/07/13 04:54:21;;;;;;;3.28;1.60;;;24.40;79.50;;;;;;5091263;28;20058;-80
2022/07/13 04:56:48;;;;;;;4.53;1.80;;;24.40;79.50;;;;;;5090925;28;20441;-80
2022/07/13 04:59:14;;;;;;;4.53;1.63;;;24.40;79.40;;;;;;5091069;28;20071;-80
2022/07/13 05:01:41;;;;;;;7.22;1.52;;;24.40;79.40;;;;;;5090666;28;20541;-80
2022/07/13 05:04:07;;;;;;;4.28;1.58;;;24.40;79.60;;;;;;5090652;28;20033;-80
2022/07/13 05:06:33;;;;;;;5.93;1.60;;;24.40;79.60;;;;;;5090625;28;20024;-80
2022/07/13 05:08:58;;;;;;;5.88;2.30;;;24.50;80.40;;;;;;5090904;28;20024;-80
2022/07/13 05:11:24;;;;;;;4.90;2.10;;;24.50;80.00;;;;;;5090640;28;20064;-79
2022/07/13 05:13:50;;;;;;;5.20;1.60;;;24.40;80.20;;;;;;5090551;28;20082;-80
2022/07/13 05:16:16;;;;;;;4.85;1.77;;;24.40;80.40;;;;;;5090631;28;20027;-79
2022/07/13 05:18:42;;;;;;;6.47;1.98;;;24.50;80.60;;;;;;5090364;28;20020;-80
2022/07/13 05:21:08;;;;;;;4.68;2.05;;;24.50;80.40;;;;;;5090371;28;20074;-80
2022/07/13 05:23:35;;;;;;;5.00;2.55;;;24.40;80.20;;;;;;5090650;28;20524;-80
2022/07/13 05:26:01;;;;;;;4.43;2.08;;;24.40;80.10;;;;;;5090343;28;20051;-80
2022/07/13 05:28:26;;;;;;;4.95;2.60;;;24.40;80.10;;;;;;5090573;28;20020;-80
2022/07/13 05:30:52;;;;;;;9.27;2.67;;;24.40;80.30;;;;;;5102820;28;20020;-79
2022/07/13 05:33:19;;;;;;;4.57;3.30;;;24.40;80.40;;;;;;5107816;28;20024;-80
2022/07/13 05:35:45;;;;;;;3.92;3.20;;;24.40;80.40;;;;;;5094682;28;20082;-80
2022/07/13 05:38:10;;;;;;;4.80;3.10;;;24.40;80.80;;;;;;5090357;28;20028;-80
2022/07/13 05:40:36;;;;;;;5.45;3.33;;;24.30;81.00;;;;;;5089920;28;20028;-80
2022/07/13 05:43:01;;;;;;;3.40;2.80;;;24.30;81.20;;;;;;5089940;28;20048;-80
2022/07/13 05:45:27;;;;;;;5.07;3.33;;;24.20;81.30;;;;;;5089785;28;20032;-80
2022/07/13 05:47:53;;;;;;;5.63;3.38;;;24.30;81.50;;;;;;5089665;28;20028;-81
2022/07/13 05:50:18;;;;;;;6.10;3.92;;;24.30;81.70;;;;;;5089709;28;20056;-80
2022/07/13 05:52:44;;;;;;;6.20;4.18;;;24.30;81.90;;;;;;5090048;28;20082;-80
2022/07/13 05:55:11;;;;;;;7.85;4.55;;;24.30;81.90;;;;;;5090107;28;20025;-80
2022/07/13 05:57:37;;;;;;;5.57;4.82;;;24.20;82.00;;;;;;5089563;28;20031;-80
2022/07/13 06:00:06;;;;;;;6.43;4.60;;;24.20;82.20;;;;;;5089924;28;20024;-80
2022/07/13 06:02:32;;;;;;;6.65;5.03;;;24.10;82.30;;;;;;5080544;28;20035;-80
2022/07/13 06:04:57;;;;;;;8.35;5.78;;;24.10;82.40;;;;;;5076039;28;20032;-80
2022/07/13 06:07:23;;;;;;;7.55;5.55;;;24.10;82.50;;;;;;5076562;28;20024;-80
2022/07/13 06:09:49;;;;;;;9.50;6.55;;;24.10;82.70;;;;;;5076298;28;20471;-80
2022/07/13 06:12:15;;;;;;;9.80;7.40;;;24.10;83.00;;;;;;5076239;28;20032;-80
2022/07/13 06:14:41;;;;;;;8.93;6.60;;;24.00;83.70;;;;;;5076107;28;20032;-80
2022/07/13 06:17:06;;;;;;;10.00;7.78;;;24.00;83.70;;;;;;5075968;28;20324;-80
2022/07/13 06:19:33;;;;;;;13.85;7.10;;;23.90;83.70;;;;;;5076301;28;20031;-80
2022/07/13 06:21:59;;;;;;;8.70;6.18;;;23.90;84.20;;;;;;5076097;28;20032;-80
2022/07/13 06:24:24;;;;;;;10.07;7.03;;;23.90;84.20;;;;;;5076458;28;20032;-80
2022/07/13 06:26:50;;;;;;;8.63;7.28;;;24.00;84.30;;;;;;5084216;28;20055;-80
2022/07/13 06:29:16;;;;;;;10.50;7.32;;;24.00;84.50;;;;;;5093726;28;20031;-80
2022/07/13 06:31:41;;;;;;;9.02;6.30;;;24.10;84.70;;;;;;5081603;28;20055;-81
2022/07/13 06:34:07;;;;;;;9.23;6.80;;;24.10;84.70;;;;;;5076015;28;20021;-80
2022/07/13 06:36:32;;;;;;;10.45;7.68;;;24.10;84.70;;;;;;5075961;28;20025;-81
2022/07/13 06:38:58;;;;;;;13.93;7.10;;;24.10;85.30;;;;;;5075865;28;20515;-81
2022/07/13 06:41:24;;;;;;;9.43;6.63;;;24.10;85.80;;;;;;5075356;28;20457;-81
2022/07/13 06:43:49;;;;;;;9.65;7.60;;;24.20;86.40;;;;;;5075406;28;20081;-81
2022/07/13 06:46:15;;;;;;;8.85;7.20;;;24.20;85.40;;;;;;5075656;28;20029;-81
2022/07/13 06:48:40;;;;;;;7.70;6.90;;;24.20;84.70;;;;;;5075612;28;20028;-81
2022/07/13 06:51:06;;;;;;;11.38;7.85;;;24.20;85.00;;;;;;5075067;28;20106;-80
2022/07/13 06:53:32;;;;;;;11.85;7.68;;;24.20;85.20;;;;;;5075183;28;20383;-80
2022/07/13 06:55:57;;;;;;;9.63;7.40;;;24.20;85.80;;;;;;5075531;28;20036;-80
2022/07/13 06:58:23;;;;;;;7.95;7.15;;;24.30;85.10;;;;;;5075194;28;20441;-81
2022/07/13 07:00:49;;;;;;;9.30;7.10;;;24.30;85.00;;;;;;5075371;28;20020;-82
2022/07/13 07:03:14;;;;;;;8.18;7.05;;;24.40;85.10;;;;;;5075054;28;20024;-81
2022/07/13 07:05:40;;;;;;;10.57;7.38;;;24.30;84.80;;;;;;5075278;28;20051;-81
2022/07/13 07:08:06;;;;;;;10.05;7.57;;;24.40;84.80;;;;;;5074753;28;20027;-81
2022/07/13 07:10:32;;;;;;;10.43;7.65;;;24.40;84.50;;;;;;5074944;28;20039;-80
2022/07/13 07:12:57;;;;;;;9.57;7.00;;;24.40;84.00;;;;;;5074972;28;20034;-81
2022/07/13 07:15:23;;;;;;;8.93;7.55;;;24.40;84.00;;;;;;5074660;28;20438;-81
2022/07/13 07:17:49;;;;;;;9.25;7.32;;;24.50;84.40;;;;;;5075130;28;20021;-80
2022/07/13 07:20:16;;;;;;;11.07;6.93;;;24.60;84.40;;;;;;5076331;28;20029;-80
2022/07/13 07:22:43;;;;;;;9.30;7.38;;;24.70;84.50;;;;;;5083219;28;20029;-80
2022/07/13 07:25:09;;;;;;;9.32;6.90;;;24.70;84.20;;;;;;5078901;28;20099;-81
2022/07/13 07:27:35;;;;;;;9.15;7.25;;;24.70;83.70;;;;;;5074501;28;20063;-81
2022/07/13 07:30:02;;;;;;;15.13;6.35;;;24.70;83.40;;;;;;5074451;28;20040;-80
2022/07/13 07:32:28;;;;;;;10.35;5.95;;;24.80;83.80;;;;;;5074290;28;20025;-81
2022/07/13 07:34:54;;;;;;;9.70;6.70;;;24.90;84.00;;;;;;5074504;28;20024;-81
2022/07/13 07:37:21;;;;;;;9.85;6.25;;;25.00;83.90;;;;;;5074491;28;20047;-81
2022/07/13 07:39:47;;;;;;;8.43;6.60;;;25.00;83.40;;;;;;5074412;28;20462;-81
2022/07/13 07:42:12;;;;;;;6.50;5.68;;;25.20;83.40;;;;;;5074241;28;20483;-81
2022/07/13 07:44:38;;;;;;;7.80;5.97;;;25.20;83.10;;;;;;5074066;28;20040;-81
2022/07/13 07:47:04;;;;;;;6.85;4.82;;;25.20;82.50;;;;;;5074644;28;20020;-81
2022/07/13 07:49:30;;;;;;;7.68;5.07;;;25.20;82.10;;;;;;5074252;28;20357;-80
2022/07/13 07:51:55;;;;;;;8.32;5.38;;;25.30;82.20;;;;;;5074045;28;20537;-81
2022/07/13 07:54:21;;;;;;;8.88;4.50;;;25.30;81.40;;;;;;5074071;28;20028;-81
2022/07/13 07:56:48;;;;;;;7.53;4.57;;;25.20;82.80;;;;;;5074014;28;20028;-81
2022/07/13 07:59:14;;;;;;;8.18;3.33;;;25.20;81.60;;;;;;5074261;28;20024;-81
2022/07/13 08:01:41;;;;;;;4.57;3.45;;;25.20;81.30;;;;;;5074388;28;20032;-81
2022/07/13 08:04:07;;;;;;;5.53;3.33;;;25.30;81.40;;;;;;5073892;28;20506;-81
2022/07/13 08:06:33;;;;;;;6.05;3.80;;;25.40;81.60;;;;;;5074395;28;20090;-81
2022/07/13 08:08:59;;;;;;;5.47;2.85;;;25.40;81.50;;;;;;5074201;28;20476;-81
2022/07/13 08:11:24;;;;;;;4.70;3.05;;;25.50;81.90;;;;;;5073992;28;20490;-81
2022/07/13 08:13:51;;;;;;;5.40;3.38;;;25.60;80.80;;;;;;5074115;28;20031;-81
2022/07/13 08:16:18;;;;;;;7.57;3.42;;;25.50;80.10;;;;;;5074345;28;20074;-81
2022/07/13 08:18:44;;;;;;;5.80;3.00;;;25.40;80.60;;;;;;5077387;28;20353;-80
2022/07/13 08:21:11;;;;;;;8.10;4.07;;;25.40;80.80;;;;;;5091543;28;20372;-81
2022/07/13 08:23:52;;;;;;;6.45;3.50;;;25.50;81.30;;;;;;5083173;28;20054;-81
2022/07/13 08:26:23;;;;;;;3.53;3.22;;;25.60;81.20;;;;;;5074040;28;20040;-80
2022/07/13 08:28:50;;;;;;;7.18;3.65;;;25.80;81.00;;;;;;5074053;28;20387;-81
2022/07/13 08:31:16;;;;;;;7.13;3.30;;;25.90;80.00;;;;;;5073630;28;20032;-81
2022/07/13 08:39:11;;;;;;;6.05;3.38;;;26.40;79.80;;;;;;5073991;28;20031;-81
2022/07/13 08:41:38;;;;;;;6.70;3.38;;;26.70;79.60;;;;;;5073673;28;20016;-81
2022/07/13 08:44:04;;;;;;;6.57;3.30;;;26.90;79.70;;;;;;5073840;28;20035;-81
2022/07/13 08:46:29;;;;;;;6.35;3.00;;;26.90;79.50;;;;;;5073224;28;20021;-81
2022/07/13 08:48:56;;;;;;;6.10;2.83;;;26.90;79.70;;;;;;5073497;28;20029;-81
2022/07/13 08:51:24;;;;;;;4.93;3.47;;;26.90;79.10;;;;;;5073048;28;20495;-81
2022/07/13 08:53:55;;;;;;;6.05;3.28;;;27.00;77.00;;;;;;5073340;28;20031;-81
2022/07/13 08:56:21;;;;;;;5.95;2.63;;;27.10;76.70;;;;;;5073372;28;20031;-81
2022/07/13 08:58:47;;;;;;;5.80;2.95;;;27.20;77.30;;;;;;5073750;28;20032;-81
2022/07/13 09:01:14;;;;;;;8.25;4.20;;;27.30;76.50;;;;;;5073375;28;20082;-81
2022/07/13 09:03:42;;;;;;;5.45;3.20;;;27.50;76.40;;;;;;5073570;28;20024;-81
2022/07/13 09:06:07;;;;;;;4.53;3.20;;;27.60;76.30;;;;;;5073384;28;20037;-81
2022/07/13 09:08:43;;;;;;;5.85;2.83;;;27.70;77.40;;;;;;5073627;28;20020;-81
2022/07/13 09:11:10;;;;;;;5.97;2.80;;;27.80;75.60;;;;;;5075903;28;20391;-81
2022/07/13 09:13:41;;;;;;;4.82;2.85;;;27.80;74.50;;;;;;5073817;28;20107;-81
2022/07/13 09:16:25;;;;;;;6.18;2.75;;;27.80;75.30;;;;;;5090710;28;20040;-81
2022/07/13 09:18:53;;;;;;;5.10;3.08;;;27.80;74.50;;;;;;5089200;28;20024;-81
2022/07/13 09:21:20;;;;;;;5.28;2.50;;;27.90;74.40;;;;;;5073572;28;20383;-81
2022/07/13 09:23:49;;;;;;;5.35;3.35;;;27.90;74.90;;;;;;5072960;28;20027;-81
2022/07/13 09:26:16;;;;;;;6.57;3.10;;;27.90;75.40;;;;;;5073155;28;20028;-82
2022/07/13 09:28:43;;;;;;;8.15;2.95;;;27.90;75.80;;;;;;5072752;28;20429;-81
2022/07/13 09:31:09;;;;;;;5.90;2.88;;;27.90;75.50;;;;;;5073310;28;20366;-81
2022/07/13 09:33:37;;;;;;;7.38;3.97;;;28.00;75.60;;;;;;5073114;28;20360;-81
2022/07/13 09:36:11;;;;;;;5.70;3.22;;;28.00;75.40;;;;;;5073265;28;20077;-81
2022/07/13 09:38:49;;;;;;;3.70;3.22;;;28.10;75.10;;;;;;5076332;28;20025;-81
2022/07/13 09:41:20;;;;;;;12.18;3.80;;;28.20;74.90;;;;;;5076781;28;20048;-81
2022/07/13 09:46:58;;;;;;;10.30;3.42;;;28.30;74.30;;;;;;5077066;28;20108;-81
2022/07/13 09:49:44;;;;;;;8.82;3.45;;;28.40;74.50;;;;;;5076797;28;20021;-81
2022/07/13 09:52:10;;;;;;;4.63;3.08;;;28.40;73.60;;;;;;5077769;28;20044;-81
2022/07/13 09:54:39;;;;;;;7.05;3.05;;;28.40;73.20;;;;;;5076475;28;20380;-81
2022/07/13 09:57:08;;;;;;;8.00;3.22;;;28.50;73.40;;;;;;5076428;28;20029;-81
2022/07/13 09:59:36;;;;;;;7.70;3.08;;;28.60;72.50;;;;;;5076195;28;20024;-81
2022/07/13 10:02:03;;;;;;;5.88;2.83;;;28.70;71.60;;;;;;5076325;28;20048;-81
2022/07/13 10:04:32;;;;;;;5.00;2.92;;;28.70;72.10;;;;;;5076271;28;20384;-82
2022/07/13 10:06:58;;;;;;;7.60;2.90;;;28.80;71.70;;;;;;5076344;28;20104;-81
2022/07/13 10:09:30;;;;;;;5.65;2.72;;;28.90;71.70;;;;;;5076583;28;20483;-81
2022/07/13 10:11:56;;;;;;;;;;;29.00;71.40;;;;;;5087586;28;20063;-80
2022/07/13 10:14:23;;;;;;;5.18;2.20;;;29.00;70.20;;;;;;5094446;28;19904;-81
2022/07/13 10:16:49;;;;;;;2.78;2.35;;;29.00;70.00;;;;;;5079574;28;20032;-81
2022/07/13 10:19:15;;;;;;;3.30;2.17;;;29.10;69.40;;;;;;5076387;28;20040;-80
2022/07/13 10:21:56;;;;;;;3.92;2.30;;;29.20;69.70;;;;;;5076176;28;20017;-81
2022/07/13 10:24:23;;;;;;;4.90;2.20;;;29.20;69.40;;;;;;5076030;28;20032;-81
2022/07/13 10:26:49;;;;;;;3.80;2.25;;;29.30;69.70;;;;;;5075916;28;20081;-81
2022/07/13 10:29:15;;;;;;;6.88;2.00;;;29.40;68.10;;;;;;5074546;28;20025;-81
2022/07/13 10:31:42;;;;;;;4.97;2.33;;;29.50;68.10;;;;;;5075505;28;20043;-80
2022/07/13 10:34:09;;;;;;;4.32;2.58;;;29.50;68.10;;;;;;5075989;28;20075;-81
2022/07/13 10:36:52;;;;;;;4.80;2.40;;;29.50;67.30;;;;;;5075718;28;20047;-81
2022/07/13 10:39:26;;;;;;;5.88;2.53;;;29.50;67.70;;;;;;5075417;28;20387;-81
2022/07/13 10:42:01;;;;;;;2.33;1.85;;;29.40;67.40;;;;;;5075813;28;20029;-81
2022/07/13 10:44:31;;;;;;;4.97;2.58;;;29.50;67.40;;;;;;5075487;28;20020;-81
2022/07/13 10:46:56;;;;;;;9.35;2.55;;;29.50;67.10;;;;;;5075333;28;20032;-81
2022/07/13 10:49:31;;;;;;;3.13;1.98;;;29.60;67.80;;;;;;5075681;28;20031;-81
2022/07/13 10:52:25;;;;;;;3.28;1.85;;;29.60;67.70;;;;;;5075501;28;20438;-82
2022/07/13 10:55:11;;;;;;;4.57;2.30;;;29.80;67.20;;;;;;5075377;28;20025;-82
2022/07/13 10:57:38;;;;;;;5.70;2.05;;;29.80;66.20;;;;;;5075201;28;20502;-82
2022/07/13 11:00:24;;;;;;;3.92;2.35;;;29.80;67.10;;;;;;5075279;28;20032;-81
2022/07/13 11:02:51;;;;;;;4.18;2.17;;;29.70;66.50;;;;;;5075547;28;20048;-82
2022/07/13 11:05:19;;;;;;;4.15;2.05;;;29.60;66.70;;;;;;5076128;28;20037;-82
2022/07/13 11:07:49;;;;;;;3.20;1.75;;;29.60;67.10;;;;;;5081760;28;20031;-81
2022/07/13 11:10:19;;;;;;;5.13;2.00;;;29.60;67.30;;;;;;5095423;28;20100;-81
2022/07/13 11:13:08;;;;;;;4.28;2.00;;;29.50;67.20;;;;;;5083650;28;20048;-81
2022/07/13 11:15:42;;;;;;;4.32;2.45;;;29.60;68.20;;;;;;5074581;28;20410;-82
2022/07/13 11:18:28;;;;;;;5.13;1.98;;;29.70;67.10;;;;;;5074856;28;20024;-81
2022/07/13 11:21:05;;;;;;;5.05;1.88;;;29.70;67.50;;;;;;5074890;28;20414;-81
2022/07/13 11:26:29;;;;;;;7.30;1.40;;;29.90;67.30;;;;;;5074691;28;20086;-81
2022/07/13 11:29:22;;;;;;;4.18;1.30;;;30.00;63.40;;;;;;5074311;28;20077;-80
2022/07/13 11:31:59;;;;;;;4.65;0.93;;;30.10;63.70;;;;;;5074041;28;20036;-80
2022/07/13 11:34:29;;;;;;;3.97;0.80;;;30.10;59.70;;;;;;5074226;28;20028;-80
2022/07/13 11:36:57;;;;;;;2.47;0.60;;;30.00;59.30;;;;;;5074682;28;20024;-81
2022/07/13 11:39:23;;;;;;;4.78;0.57;;;29.80;57.50;;;;;;5074258;28;20031;-80
2022/07/13 11:41:51;;;;;;;2.33;0.55;;;29.70;58.30;;;;;;5074338;28;20436;-80
2022/07/13 11:44:21;;;;;;;2.85;0.70;;;29.70;58.20;;;;;;5074073;28;20016;-80
2022/07/13 11:46:47;;;;;;;2.92;0.70;;;29.70;57.10;;;;;;5074175;28;20063;-81
2022/07/13 11:49:14;;;;;;;2.03;0.85;;;29.60;57.20;;;;;;5074058;28;20044;-80
2022/07/13 11:51:43;;;;;;;3.70;0.57;;;29.60;55.90;;;;;;5075213;28;20053;-80
2022/07/13 11:54:10;;;;;;;2.03;0.60;;;29.50;54.30;;;;;;5074338;28;20031;-81
2022/07/13 11:56:46;;;;;;;0.75;0.50;;;29.40;54.40;;;;;;5073364;28;20031;-80
2022/07/13 11:59:11;;;;;;;1.98;0.40;;;29.30;54.90;;;;;;5078040;28;20021;-80
2022/07/13 12:01:38;;;;;;;2.30;0.50;;;29.30;54.70;;;;;;5082101;28;20016;-79
2022/07/13 12:04:05;;;;;;;2.35;0.60;;;29.30;54.70;;;;;;5078070;28;20025;-76
2022/07/13 12:06:30;;;;;;;1.08;0.30;;;29.20;54.60;;;;;;5094032;28;20031;-79
2022/07/13 12:08:56;;;;;;;5.60;0.38;;;29.20;53.30;;;;;;5089782;28;20111;-81
2022/07/13 12:11:22;;;;;;;1.85;0.35;;;29.20;53.30;;;;;;5081384;28;20040;-81
2022/07/13 12:13:48;;;;;;;1.63;0.47;;;29.40;53.80;;;;;;5082013;28;20021;-81
2022/07/13 12:16:15;;;;;;;1.50;0.47;;;29.60;54.00;;;;;;5078999;28;20021;-81
2022/07/13 12:19:04;;;;;;;1.83;0.40;;;29.80;54.80;;;;;;5074331;28;20021;-81
2022/07/13 12:21:33;;;;;;;3.45;0.43;;;30.00;53.70;;;;;;5075349;28;20029;-81
2022/07/13 12:24:00;;;;;;;1.35;0.60;;;30.20;53.40;;;;;;5074534;28;20491;-81
2022/07/13 12:26:26;;;;;;;3.70;0.57;;;30.40;53.30;;;;;;5074582;28;20040;-81
2022/07/13 12:28:53;;;;;;;1.55;0.52;;;30.40;52.60;;;;;;5074158;28;20028;-82
2022/07/13 12:31:20;;;;;;;5.53;0.60;;;30.40;52.80;;;;;;5074184;28;20089;-81
2022/07/13 12:33:48;;;;;;;2.05;0.80;;;30.40;52.90;;;;;;5076097;28;20024;-81
2022/07/13 12:36:15;;;;;;;2.35;0.82;;;30.50;52.20;;;;;;5074886;28;20040;-81
2022/07/13 12:38:53;;;;;;;4.38;0.50;;;30.50;52.50;;;;;;5073455;28;20026;-81
2022/07/13 12:41:33;;;;;;;3.85;0.50;;;30.70;52.50;;;;;;5073658;28;20032;-81
2022/07/13 12:44:04;;;;;;;1.10;0.50;;;30.80;52.60;;;;;;5073310;28;20024;-81
2022/07/13 12:46:52;;;;;;;1.00;0.40;;;30.90;52.70;;;;;;5073177;28;20029;-81
2022/07/13 12:49:18;;;;;;;1.42;0.60;;;31.00;52.20;;;;;;5073260;28;20021;-81
2022/07/13 12:51:50;;;;;;;3.17;0.60;;;31.00;52.40;;;;;;5073148;28;20480;-81
2022/07/13 12:54:16;;;;;;;1.33;0.55;;;31.00;52.30;;;;;;5073332;28;20115;-81
2022/07/13 12:56:48;;;;;;;1.55;0.80;;;30.90;52.50;;;;;;5073461;28;20487;-81
2022/07/13 12:59:17;;;;;;;2.78;0.40;;;30.90;52.30;;;;;;5074938;28;20024;-81